^^
Station Historical Data
Daily Summary for March 1, 2017 Units:  Both    English   Metric
« Previous Day
Next Day »
Daily Weekly Monthly Yearly Custom
  High: Low: Average:
Temperature: 81.7 °F /  27.6 °C 65.1 °F /  18.4 °C 71.9 °F /  22.2 °C
Dew Point: 62.2 °F /  16.8 °C 58.5 °F /  14.7 °C 60.6 °F /  15.9 °C
Humidity: 85% 48% 69%
Wind Speed: 13.0mph /  20.9km/h - 2.1mph /  3.4km/h
Wind Gust: 13.0mph /  20.9km/h - -
Wind- - East
Pressure: 29.80 in /  1009 hPa 29.67 in /  1004.6 hPa -
Precipitation: 0.00 in /  0 mm    
Historical Graphs
 
 
Tabular Data for March 1, 2017
Time Temperature Dew Point Pressure Wind Wind Speed Wind Gust Humidity Rainfall Rate (Hourly) solar Conditions
00:04 69.1 °F /  20.6 °C 60.8 °F /  16 °C 29.74in /  1007hPa ESE 2.0mph /  3.2km/h 5.0mph /  8km/h 75% 0.00in /  0mm 0.0 W/m2
00:10 69.1 °F /  20.6 °C 61.2 °F /  16.2 °C 29.74in /  1007hPa Calm   2.0mph /  3.2km/h 76% 0.00in /  0mm 0.0 W/m2
00:16 68.7 °F /  20.4 °C 60.8 °F /  16 °C 29.73in /  1006.7hPa Calm   4.0mph /  6.4km/h 76% 0.00in /  0mm 0.0 W/m2
00:22 68.7 °F /  20.4 °C 60.8 °F /  16 °C 29.73in /  1006.7hPa NE 0.9mph /  1.4km/h 3.0mph /  4.8km/h 76% 0.00in /  0mm 0.0 W/m2
00:28 68.5 °F /  20.3 °C 60.6 °F /  15.9 °C 29.73in /  1006.7hPa Calm   5.0mph /  8km/h 76% 0.00in /  0mm 0.0 W/m2
00:34 68.5 °F /  20.3 °C 60.6 °F /  15.9 °C 29.73in /  1006.7hPa Calm   2.0mph /  3.2km/h 76% 0.00in /  0mm 0.0 W/m2
00:40 68.4 °F /  20.2 °C 60.8 °F /  16 °C 29.72in /  1006.3hPa Calm   4.0mph /  6.4km/h 77% 0.00in /  0mm 0.0 W/m2
00:46 68.4 °F /  20.2 °C 60.8 °F /  16 °C 29.72in /  1006.3hPa Calm   2.0mph /  3.2km/h 77% 0.00in /  0mm 0.0 W/m2
00:53 68.2 °F /  20.1 °C 60.6 °F /  15.9 °C 29.72in /  1006.3hPa Calm   1.0mph /  1.6km/h 77% 0.00in /  0mm 0.0 W/m2
00:59 68.2 °F /  20.1 °C 61.0 °F /  16.1 °C 29.72in /  1006.3hPa Calm     78% 0.00in /  0mm 0.0 W/m2
01:05 68.0 °F /  20 °C 60.8 °F /  16 °C 29.72in /  1006.3hPa Calm   1.0mph /  1.6km/h 78% 0.00in /  0mm 0.0 W/m2
01:11 67.8 °F /  19.9 °C 60.6 °F /  15.9 °C 29.72in /  1006.3hPa Calm   1.0mph /  1.6km/h 78% 0.00in /  0mm 0.0 W/m2
01:17 67.6 °F /  19.8 °C 60.6 °F /  15.9 °C 29.72in /  1006.3hPa Calm     78% 0.00in /  0mm 0.0 W/m2
01:23 67.6 °F /  19.8 °C 60.6 °F /  15.9 °C 29.72in /  1006.3hPa Calm   2.0mph /  3.2km/h 78% 0.00in /  0mm 0.0 W/m2
01:29 67.5 °F /  19.7 °C 60.8 °F /  16 °C 29.72in /  1006.3hPa Calm   2.0mph /  3.2km/h 79% 0.00in /  0mm 0.0 W/m2
01:35 67.5 °F /  19.7 °C 60.8 °F /  16 °C 29.72in /  1006.3hPa East 2.9mph /  4.7km/h 3.0mph /  4.8km/h 79% 0.00in /  0mm 0.0 W/m2
01:41 67.5 °F /  19.7 °C 60.8 °F /  16 °C 29.72in /  1006.3hPa ENE 4.9mph /  7.9km/h 6.0mph /  9.7km/h 79% 0.00in /  0mm 0.0 W/m2
01:48 67.3 °F /  19.6 °C 60.6 °F /  15.9 °C 29.72in /  1006.3hPa Calm   3.0mph /  4.8km/h 79% 0.00in /  0mm 0.0 W/m2
01:54 67.3 °F /  19.6 °C 61.0 °F /  16.1 °C 29.72in /  1006.3hPa Calm   5.0mph /  8km/h 80% 0.00in /  0mm 0.0 W/m2
02:00 67.1 °F /  19.5 °C 60.8 °F /  16 °C 29.72in /  1006.3hPa Calm   8.0mph /  12.9km/h 80% 0.00in /  0mm 0.0 W/m2
02:06 67.1 °F /  19.5 °C 60.8 °F /  16 °C 29.72in /  1006.3hPa Calm   6.0mph /  9.7km/h 80% 0.00in /  0mm 0.0 W/m2
02:12 66.9 °F /  19.4 °C 61.0 °F /  16.1 °C 29.72in /  1006.3hPa NNE 0.9mph /  1.4km/h 4.0mph /  6.4km/h 81% 0.00in /  0mm 0.0 W/m2
02:18 66.9 °F /  19.4 °C 61.0 °F /  16.1 °C 29.71in /  1006hPa ENE 6.9mph /  11.1km/h 7.0mph /  11.3km/h 81% 0.00in /  0mm 0.0 W/m2
02:24 66.9 °F /  19.4 °C 61.0 °F /  16.1 °C 29.71in /  1006hPa Calm   5.0mph /  8km/h 81% 0.00in /  0mm 0.0 W/m2
02:30 66.9 °F /  19.4 °C 61.0 °F /  16.1 °C 29.71in /  1006hPa ENE 2.0mph /  3.2km/h 12.0mph /  19.3km/h 81% 0.00in /  0mm 0.0 W/m2
02:37 66.7 °F /  19.3 °C 60.8 °F /  16 °C 29.71in /  1006hPa East 6.0mph /  9.7km/h 7.0mph /  11.3km/h 81% 0.00in /  0mm 0.0 W/m2
02:43 66.7 °F /  19.3 °C 61.0 °F /  16.1 °C 29.71in /  1006hPa ENE 2.9mph /  4.7km/h 4.0mph /  6.4km/h 82% 0.00in /  0mm 0.0 W/m2
02:49 66.6 °F /  19.2 °C 61.0 °F /  16.1 °C 29.71in /  1006hPa East 4.9mph /  7.9km/h 7.0mph /  11.3km/h 82% 0.00in /  0mm 0.0 W/m2
02:55 66.4 °F /  19.1 °C 61.0 °F /  16.1 °C 29.71in /  1006hPa East 4.0mph /  6.4km/h 5.0mph /  8km/h 83% 0.00in /  0mm 0.0 W/m2
03:01 66.4 °F /  19.1 °C 61.0 °F /  16.1 °C 29.71in /  1006hPa ENE 0.9mph /  1.4km/h 6.0mph /  9.7km/h 83% 0.00in /  0mm 0.0 W/m2
03:07 66.6 °F /  19.2 °C 61.2 °F /  16.2 °C 29.72in /  1006.3hPa Calm   1.0mph /  1.6km/h 83% 0.00in /  0mm 0.0 W/m2
03:13 66.4 °F /  19.1 °C 61.0 °F /  16.1 °C 29.71in /  1006hPa Calm   1.0mph /  1.6km/h 83% 0.00in /  0mm 0.0 W/m2
03:20 66.4 °F /  19.1 °C 61.0 °F /  16.1 °C 29.71in /  1006hPa Calm   3.0mph /  4.8km/h 83% 0.00in /  0mm 0.0 W/m2
03:26 66.6 °F /  19.2 °C 61.2 °F /  16.2 °C 29.71in /  1006hPa ENE 0.9mph /  1.4km/h 3.0mph /  4.8km/h 83% 0.00in /  0mm 0.0 W/m2
03:32 66.6 °F /  19.2 °C 61.2 °F /  16.2 °C 29.71in /  1006hPa ENE 4.0mph /  6.4km/h 4.0mph /  6.4km/h 83% 0.00in /  0mm 0.0 W/m2
03:38 66.4 °F /  19.1 °C 61.0 °F /  16.1 °C 29.71in /  1006hPa Calm   4.0mph /  6.4km/h 83% 0.00in /  0mm 0.0 W/m2
03:44 66.4 °F /  19.1 °C 61.0 °F /  16.1 °C 29.71in /  1006hPa Calm   4.0mph /  6.4km/h 83% 0.00in /  0mm 0.0 W/m2
03:50 66.4 °F /  19.1 °C 61.0 °F /  16.1 °C 29.71in /  1006hPa East 4.9mph /  7.9km/h 5.0mph /  8km/h 83% 0.00in /  0mm 0.0 W/m2
03:56 66.4 °F /  19.1 °C 61.3 °F /  16.3 °C 29.70in /  1005.6hPa Calm   3.0mph /  4.8km/h 84% 0.00in /  0mm 0.0 W/m2
04:02 66.2 °F /  19 °C 61.2 °F /  16.2 °C 29.71in /  1006hPa ESE 2.9mph /  4.7km/h 3.0mph /  4.8km/h 84% 0.00in /  0mm 0.0 W/m2
04:09 66.0 °F /  18.9 °C 61.0 °F /  16.1 °C 29.71in /  1006hPa Calm   3.0mph /  4.8km/h 84% 0.00in /  0mm 0.0 W/m2
04:15 66.0 °F /  18.9 °C 61.0 °F /  16.1 °C 29.71in /  1006hPa Calm   3.0mph /  4.8km/h 84% 0.00in /  0mm 0.0 W/m2
04:21 65.8 °F /  18.8 °C 60.8 °F /  16 °C 29.70in /  1005.6hPa Calm   2.0mph /  3.2km/h 84% 0.00in /  0mm 0.0 W/m2
04:27 65.8 °F /  18.8 °C 60.8 °F /  16 °C 29.70in /  1005.6hPa Calm   4.0mph /  6.4km/h 84% 0.00in /  0mm 0.0 W/m2
04:33 65.8 °F /  18.8 °C 60.8 °F /  16 °C 29.70in /  1005.6hPa Calm   4.0mph /  6.4km/h 84% 0.00in /  0mm 0.0 W/m2
04:39 65.7 °F /  18.7 °C 60.6 °F /  15.9 °C 29.70in /  1005.6hPa Calm   1.0mph /  1.6km/h 84% 0.00in /  0mm 0.0 W/m2
04:45 65.7 °F /  18.7 °C 60.6 °F /  15.9 °C 29.70in /  1005.6hPa Calm   2.0mph /  3.2km/h 84% 0.00in /  0mm 0.0 W/m2
04:51 65.5 °F /  18.6 °C 60.4 °F /  15.8 °C 29.70in /  1005.6hPa ESE 0.9mph /  1.4km/h 3.0mph /  4.8km/h 84% 0.00in /  0mm 0.0 W/m2
04:57 65.5 °F /  18.6 °C 60.8 °F /  16 °C 29.71in /  1006hPa Calm   1.0mph /  1.6km/h 85% 0.00in /  0mm 0.0 W/m2
05:04 65.3 °F /  18.5 °C 60.6 °F /  15.9 °C 29.70in /  1005.6hPa Calm   3.0mph /  4.8km/h 85% 0.00in /  0mm 0.0 W/m2
05:10 65.3 °F /  18.5 °C 60.3 °F /  15.7 °C 29.70in /  1005.6hPa SE 0.9mph /  1.4km/h 1.0mph /  1.6km/h 84% 0.00in /  0mm 0.0 W/m2
05:16 65.3 °F /  18.5 °C 60.3 °F /  15.7 °C 29.71in /  1006hPa Calm   4.0mph /  6.4km/h 84% 0.00in /  0mm 0.0 W/m2
05:22 65.3 °F /  18.5 °C 60.3 °F /  15.7 °C 29.71in /  1006hPa SE 2.0mph /  3.2km/h 4.0mph /  6.4km/h 84% 0.00in /  0mm 0.0 W/m2
05:28 65.5 °F /  18.6 °C 60.3 °F /  15.7 °C 29.71in /  1006hPa Calm   4.0mph /  6.4km/h 83% 0.00in /  0mm 0.0 W/m2
05:34 65.5 °F /  18.6 °C 60.3 °F /  15.7 °C 29.71in /  1006hPa NE 0.9mph /  1.4km/h 4.0mph /  6.4km/h 83% 0.00in /  0mm 0.0 W/m2
05:40 65.7 °F /  18.7 °C 60.4 °F /  15.8 °C 29.71in /  1006hPa ESE 0.9mph /  1.4km/h 2.0mph /  3.2km/h 83% 0.00in /  0mm 0.0 W/m2
05:46 65.7 °F /  18.7 °C 60.1 °F /  15.6 °C 29.71in /  1006hPa Calm   5.0mph /  8km/h 82% 0.00in /  0mm 0.0 W/m2
05:53 65.8 °F /  18.8 °C 60.3 °F /  15.7 °C 29.72in /  1006.3hPa NNE 4.0mph /  6.4km/h 4.0mph /  6.4km/h 82% 0.00in /  0mm 0.0 W/m2
05:59 65.8 °F /  18.8 °C 59.9 °F /  15.5 °C 29.72in /  1006.3hPa ESE 2.9mph /  4.7km/h 6.0mph /  9.7km/h 81% 0.00in /  0mm 0.0 W/m2
06:05 65.8 °F /  18.8 °C 59.9 °F /  15.5 °C 29.72in /  1006.3hPa Calm   3.0mph /  4.8km/h 81% 0.00in /  0mm 0.0 W/m2
06:11 66.0 °F /  18.9 °C 60.1 °F /  15.6 °C 29.72in /  1006.3hPa NNE 2.9mph /  4.7km/h 4.0mph /  6.4km/h 81% 0.00in /  0mm 0.0 W/m2
06:17 66.0 °F /  18.9 °C 60.1 °F /  15.6 °C 29.73in /  1006.7hPa ENE 2.9mph /  4.7km/h 4.0mph /  6.4km/h 81% 0.00in /  0mm 0.0 W/m2
06:23 66.0 °F /  18.9 °C 60.1 °F /  15.6 °C 29.73in /  1006.7hPa ESE 2.0mph /  3.2km/h 6.0mph /  9.7km/h 81% 0.00in /  0mm 0.0 W/m2
06:29 65.8 °F /  18.8 °C 59.9 °F /  15.5 °C 29.73in /  1006.7hPa Calm   5.0mph /  8km/h 81% 0.00in /  0mm 0.0 W/m2
06:35 65.8 °F /  18.8 °C 59.9 °F /  15.5 °C 29.72in /  1006.3hPa ESE 2.0mph /  3.2km/h 6.0mph /  9.7km/h 81% 0.00in /  0mm 0.0 W/m2
06:41 65.7 °F /  18.7 °C 60.1 °F /  15.6 °C 29.73in /  1006.7hPa East 2.9mph /  4.7km/h 4.0mph /  6.4km/h 82% 0.00in /  0mm 0.0 W/m2
06:48 65.5 °F /  18.6 °C 59.9 °F /  15.5 °C 29.73in /  1006.7hPa ESE 4.0mph /  6.4km/h 8.0mph /  12.9km/h 82% 0.00in /  0mm 0.0 W/m2
06:54 65.5 °F /  18.6 °C 59.9 °F /  15.5 °C 29.73in /  1006.7hPa ENE 0.9mph /  1.4km/h 6.0mph /  9.7km/h 82% 0.00in /  0mm 5.0 W/m2
07:00 65.3 °F /  18.5 °C 59.4 °F /  15.2 °C 29.73in /  1006.7hPa SE 2.9mph /  4.7km/h 7.0mph /  11.3km/h 81% 0.00in /  0mm 9.0 W/m2
07:06 65.1 °F /  18.4 °C 59.2 °F /  15.1 °C 29.74in /  1007hPa East 0.9mph /  1.4km/h 8.0mph /  12.9km/h 81% 0.00in /  0mm 11.0 W/m2
07:12 65.1 °F /  18.4 °C 59.5 °F /  15.3 °C 29.74in /  1007hPa Calm   6.0mph /  9.7km/h 82% 0.00in /  0mm 12.0 W/m2
07:18 65.3 °F /  18.5 °C 59.7 °F /  15.4 °C 29.74in /  1007hPa North 4.0mph /  6.4km/h 7.0mph /  11.3km/h 82% 0.00in /  0mm 18.0 W/m2
07:25 65.5 °F /  18.6 °C 59.9 °F /  15.5 °C 29.74in /  1007hPa ESE 8.1mph /  13km/h 8.1mph /  13km/h 82% 0.00in /  0mm 21.0 W/m2
07:31 65.5 °F /  18.6 °C 59.5 °F /  15.3 °C 29.74in /  1007hPa SE 4.9mph /  7.9km/h 7.0mph /  11.3km/h 81% 0.00in /  0mm 23.0 W/m2
07:37 65.5 °F /  18.6 °C 59.9 °F /  15.5 °C 29.74in /  1007hPa Calm   3.0mph /  4.8km/h 82% 0.00in /  0mm 28.0 W/m2
07:43 65.7 °F /  18.7 °C 59.7 °F /  15.4 °C 29.74in /  1007hPa East 0.9mph /  1.4km/h 3.0mph /  4.8km/h 81% 0.00in /  0mm 37.0 W/m2
07:49 65.7 °F /  18.7 °C 59.7 °F /  15.4 °C 29.74in /  1007hPa NE 0.9mph /  1.4km/h 2.0mph /  3.2km/h 81% 0.00in /  0mm 33.0 W/m2
07:55 65.8 °F /  18.8 °C 59.5 °F /  15.3 °C 29.74in /  1007hPa NNE 0.9mph /  1.4km/h 5.0mph /  8km/h 80% 0.00in /  0mm 33.0 W/m2
08:01 65.8 °F /  18.8 °C 59.5 °F /  15.3 °C 29.75in /  1007.3hPa ESE 4.0mph /  6.4km/h 8.0mph /  12.9km/h 80% 0.00in /  0mm 30.0 W/m2
08:07 65.8 °F /  18.8 °C 59.5 °F /  15.3 °C 29.75in /  1007.3hPa ENE 4.9mph /  7.9km/h 6.0mph /  9.7km/h 80% 0.00in /  0mm 25.0 W/m2
08:14 66.0 °F /  18.9 °C 59.7 °F /  15.4 °C 29.75in /  1007.3hPa ENE 2.9mph /  4.7km/h 4.0mph /  6.4km/h 80% 0.00in /  0mm 44.0 W/m2
08:20 66.0 °F /  18.9 °C 60.1 °F /  15.6 °C 29.75in /  1007.3hPa ENE 0.9mph /  1.4km/h 6.0mph /  9.7km/h 81% 0.00in /  0mm 67.0 W/m2
08:26 66.0 °F /  18.9 °C 60.1 °F /  15.6 °C 29.76in /  1007.7hPa SE 0.9mph /  1.4km/h 4.0mph /  6.4km/h 81% 0.00in /  0mm 144.0 W/m2
08:32 66.4 °F /  19.1 °C 60.1 °F /  15.6 °C 29.76in /  1007.7hPa East 4.9mph /  7.9km/h 6.0mph /  9.7km/h 80% 0.00in /  0mm 130.0 W/m2
08:38 66.6 °F /  19.2 °C 60.3 °F /  15.7 °C 29.76in /  1007.7hPa ESE 2.0mph /  3.2km/h 4.0mph /  6.4km/h 80% 0.00in /  0mm 148.0 W/m2
08:44 66.9 °F /  19.4 °C 60.6 °F /  15.9 °C 29.76in /  1007.7hPa East 8.1mph /  13km/h 8.1mph /  13km/h 80% 0.00in /  0mm 172.0 W/m2
08:50 67.3 °F /  19.6 °C 60.6 °F /  15.9 °C 29.76in /  1007.7hPa Calm   2.0mph /  3.2km/h 79% 0.00in /  0mm 183.0 W/m2
08:56 67.6 °F /  19.8 °C 61.0 °F /  16.1 °C 29.76in /  1007.7hPa NE 8.1mph /  13km/h 8.1mph /  13km/h 79% 0.00in /  0mm 185.0 W/m2
09:03 68.2 °F /  20.1 °C 60.6 °F /  15.9 °C 29.76in /  1007.7hPa North 4.0mph /  6.4km/h 9.0mph /  14.5km/h 77% 0.00in /  0mm 132.0 W/m2
09:09 68.2 °F /  20.1 °C 60.6 °F /  15.9 °C 29.77in /  1008hPa NE 6.0mph /  9.7km/h 10.0mph /  16.1km/h 77% 0.00in /  0mm 209.0 W/m2
09:15 68.5 °F /  20.3 °C 60.6 °F /  15.9 °C 29.77in /  1008hPa East 2.0mph /  3.2km/h 4.0mph /  6.4km/h 76% 0.00in /  0mm 413.0 W/m2
09:21 69.3 °F /  20.7 °C 61.0 °F /  16.1 °C 29.77in /  1008hPa ESE 0.9mph /  1.4km/h 8.0mph /  12.9km/h 75% 0.00in /  0mm 675.0 W/m2
09:27 69.6 °F /  20.9 °C 60.3 °F /  15.7 °C 29.77in /  1008hPa NE 2.9mph /  4.7km/h 7.0mph /  11.3km/h 72% 0.00in /  0mm 320.0 W/m2
09:33 70.2 °F /  21.2 °C 60.6 °F /  15.9 °C 29.77in /  1008hPa East 2.0mph /  3.2km/h 4.0mph /  6.4km/h 72% 0.00in /  0mm 246.0 W/m2
09:39 70.3 °F /  21.3 °C 60.4 °F /  15.8 °C 29.77in /  1008hPa SSE 0.9mph /  1.4km/h 6.0mph /  9.7km/h 71% 0.00in /  0mm 394.0 W/m2
09:45 70.5 °F /  21.4 °C 60.6 °F /  15.9 °C 29.77in /  1008hPa NNE 2.9mph /  4.7km/h 7.0mph /  11.3km/h 71% 0.00in /  0mm 206.0 W/m2
09:51 70.9 °F /  21.6 °C 60.3 °F /  15.7 °C 29.77in /  1008hPa ESE 4.9mph /  7.9km/h 6.0mph /  9.7km/h 69% 0.00in /  0mm 287.0 W/m2
09:58 71.1 °F /  21.7 °C 60.4 °F /  15.8 °C 29.77in /  1008hPa NE 0.9mph /  1.4km/h 7.0mph /  11.3km/h 69% 0.00in /  0mm 279.0 W/m2
10:04 71.2 °F /  21.8 °C 60.1 °F /  15.6 °C 29.77in /  1008hPa NNE 2.0mph /  3.2km/h 8.0mph /  12.9km/h 68% 0.00in /  0mm 299.0 W/m2
10:10 71.6 °F /  22 °C 60.1 °F /  15.6 °C 29.77in /  1008hPa Calm   8.0mph /  12.9km/h 67% 0.00in /  0mm 276.0 W/m2
10:16 71.8 °F /  22.1 °C 60.6 °F /  15.9 °C 29.77in /  1008hPa ESE 2.9mph /  4.7km/h 8.0mph /  12.9km/h 68% 0.00in /  0mm 279.0 W/m2
10:22 72.0 °F /  22.2 °C 60.4 °F /  15.8 °C 29.77in /  1008hPa SE 0.9mph /  1.4km/h 6.0mph /  9.7km/h 67% 0.00in /  0mm 295.0 W/m2
10:28 72.7 °F /  22.6 °C 60.3 °F /  15.7 °C 29.77in /  1008hPa SE 4.0mph /  6.4km/h 9.0mph /  14.5km/h 65% 0.00in /  0mm 926.0 W/m2
10:35 73.4 °F /  23 °C 60.4 °F /  15.8 °C 29.76in /  1007.7hPa ESE 0.9mph /  1.4km/h 3.0mph /  4.8km/h 64% 0.00in /  0mm 1093.0 W/m2
10:41 73.8 °F /  23.2 °C 60.4 °F /  15.8 °C 29.76in /  1007.7hPa East 0.9mph /  1.4km/h 7.0mph /  11.3km/h 63% 0.00in /  0mm 831.0 W/m2
10:47 74.3 °F /  23.5 °C 60.4 °F /  15.8 °C 29.76in /  1007.7hPa ENE 4.0mph /  6.4km/h 9.0mph /  14.5km/h 62% 0.00in /  0mm 649.0 W/m2
10:53 74.8 °F /  23.8 °C 60.4 °F /  15.8 °C 29.76in /  1007.7hPa Calm   5.0mph /  8km/h 61% 0.00in /  0mm 420.0 W/m2
10:59 75.6 °F /  24.2 °C 60.3 °F /  15.7 °C 29.76in /  1007.7hPa ENE 8.9mph /  14.3km/h 9.0mph /  14.5km/h 59% 0.00in /  0mm 921.0 W/m2
11:05 76.1 °F /  24.5 °C 61.7 °F /  16.5 °C 29.75in /  1007.3hPa SSE 2.9mph /  4.7km/h 4.0mph /  6.4km/h 61% 0.00in /  0mm 858.0 W/m2
11:11 76.3 °F /  24.6 °C 60.4 °F /  15.8 °C 29.76in /  1007.7hPa Calm   8.0mph /  12.9km/h 58% 0.00in /  0mm 853.0 W/m2
11:17 76.5 °F /  24.7 °C 60.6 °F /  15.9 °C 29.76in /  1007.7hPa East 0.9mph /  1.4km/h 11.0mph /  17.7km/h 58% 0.00in /  0mm 846.0 W/m2
11:23 76.8 °F /  24.9 °C 61.0 °F /  16.1 °C 29.75in /  1007.3hPa East 12.1mph /  19.5km/h 12.1mph /  19.5km/h 58% 0.00in /  0mm 1023.0 W/m2
11:30 77.0 °F /  25 °C 60.6 °F /  15.9 °C 29.75in /  1007.3hPa NE 2.9mph /  4.7km/h 10.0mph /  16.1km/h 57% 0.00in /  0mm 339.0 W/m2
11:36 76.8 °F /  24.9 °C 61.3 °F /  16.3 °C 29.75in /  1007.3hPa ESE 2.9mph /  4.7km/h 7.0mph /  11.3km/h 59% 0.00in /  0mm 1000.0 W/m2
11:42 77.2 °F /  25.1 °C 60.8 °F /  16 °C 29.75in /  1007.3hPa NE 8.1mph /  13km/h 10.0mph /  16.1km/h 57% 0.00in /  0mm 1014.0 W/m2
11:48 77.5 °F /  25.3 °C 60.6 °F /  15.9 °C 29.75in /  1007.3hPa SSW 2.0mph /  3.2km/h 8.0mph /  12.9km/h 56% 0.00in /  0mm 520.0 W/m2
11:54 77.5 °F /  25.3 °C 61.2 °F /  16.2 °C 29.75in /  1007.3hPa East 2.0mph /  3.2km/h 8.0mph /  12.9km/h 57% 0.00in /  0mm 339.0 W/m2
12:00 77.4 °F /  25.2 °C 60.4 °F /  15.8 °C 29.75in /  1007.3hPa ENE 2.9mph /  4.7km/h 9.0mph /  14.5km/h 56% 0.00in /  0mm 341.0 W/m2
12:06 77.0 °F /  25 °C 60.6 °F /  15.9 °C 29.74in /  1007hPa East 6.0mph /  9.7km/h 9.0mph /  14.5km/h 57% 0.00in /  0mm 446.0 W/m2
12:13 76.8 °F /  24.9 °C 59.9 °F /  15.5 °C 29.74in /  1007hPa East 8.1mph /  13km/h 12.0mph /  19.3km/h 56% 0.00in /  0mm 550.0 W/m2
12:19 76.8 °F /  24.9 °C 60.4 °F /  15.8 °C 29.74in /  1007hPa SSE 2.0mph /  3.2km/h 12.0mph /  19.3km/h 57% 0.00in /  0mm 1069.0 W/m2
12:25 77.5 °F /  25.3 °C 60.1 °F /  15.6 °C 29.74in /  1007hPa SE 6.9mph /  11.1km/h 11.0mph /  17.7km/h 55% 0.00in /  0mm 548.0 W/m2
12:31 77.7 °F /  25.4 °C 60.3 °F /  15.7 °C 29.73in /  1006.7hPa ENE 8.9mph /  14.3km/h 9.0mph /  14.5km/h 55% 0.00in /  0mm 773.0 W/m2
12:37 78.4 °F /  25.8 °C 60.4 °F /  15.8 °C 29.73in /  1006.7hPa North 4.0mph /  6.4km/h 9.0mph /  14.5km/h 54% 0.00in /  0mm 1150.0 W/m2
12:43 79.2 °F /  26.2 °C 60.1 °F /  15.6 °C 29.73in /  1006.7hPa ESE 2.9mph /  4.7km/h 7.0mph /  11.3km/h 52% 0.00in /  0mm 775.0 W/m2
12:49 79.5 °F /  26.4 °C 59.7 °F /  15.4 °C 29.73in /  1006.7hPa East 2.0mph /  3.2km/h 10.0mph /  16.1km/h 51% 0.00in /  0mm 454.0 W/m2
12:55 79.5 °F /  26.4 °C 60.4 °F /  15.8 °C 29.73in /  1006.7hPa East 2.9mph /  4.7km/h 10.0mph /  16.1km/h 52% 0.00in /  0mm 480.0 W/m2
13:02 79.3 °F /  26.3 °C 59.7 °F /  15.4 °C 29.73in /  1006.7hPa ESE 4.9mph /  7.9km/h 8.0mph /  12.9km/h 51% 0.00in /  0mm 570.0 W/m2
13:08 79.9 °F /  26.6 °C 60.1 °F /  15.6 °C 29.73in /  1006.7hPa ENE 4.0mph /  6.4km/h 9.0mph /  14.5km/h 51% 0.00in /  0mm 570.0 W/m2
13:14 79.9 °F /  26.6 °C 59.5 °F /  15.3 °C 29.72in /  1006.3hPa ENE 0.9mph /  1.4km/h 13.0mph /  20.9km/h 50% 0.00in /  0mm 462.0 W/m2
13:20 80.1 °F /  26.7 °C 59.7 °F /  15.4 °C 29.72in /  1006.3hPa NNE 2.0mph /  3.2km/h 10.0mph /  16.1km/h 50% 0.00in /  0mm 867.0 W/m2
13:26 80.4 °F /  26.9 °C 60.1 °F /  15.6 °C 29.72in /  1006.3hPa Calm   8.0mph /  12.9km/h 50% 0.00in /  0mm 912.0 W/m2
13:32 80.6 °F /  27 °C 60.8 °F /  16 °C 29.72in /  1006.3hPa East 2.9mph /  4.7km/h 5.0mph /  8km/h 51% 0.00in /  0mm 684.0 W/m2
13:38 80.8 °F /  27.1 °C 61.0 °F /  16.1 °C 29.71in /  1006hPa ENE 4.0mph /  6.4km/h 9.0mph /  14.5km/h 51% 0.00in /  0mm 480.0 W/m2
13:44 80.8 °F /  27.1 °C 60.4 °F /  15.8 °C 29.71in /  1006hPa ESE 0.9mph /  1.4km/h 7.0mph /  11.3km/h 50% 0.00in /  0mm 404.0 W/m2
13:51 80.8 °F /  27.1 °C 59.2 °F /  15.1 °C 29.71in /  1006hPa South 2.9mph /  4.7km/h 9.0mph /  14.5km/h 48% 0.00in /  0mm 413.0 W/m2
13:57 80.4 °F /  26.9 °C 60.6 °F /  15.9 °C 29.70in /  1005.6hPa ENE 4.0mph /  6.4km/h 5.0mph /  8km/h 51% 0.00in /  0mm 401.0 W/m2
14:03 80.2 °F /  26.8 °C 59.4 °F /  15.2 °C 29.70in /  1005.6hPa NNE 2.9mph /  4.7km/h 8.0mph /  12.9km/h 49% 0.00in /  0mm 504.0 W/m2
14:09 80.4 °F /  26.9 °C 60.1 °F /  15.6 °C 29.70in /  1005.6hPa SE 2.9mph /  4.7km/h 8.0mph /  12.9km/h 50% 0.00in /  0mm 809.0 W/m2
14:15 81.0 °F /  27.2 °C 59.4 °F /  15.2 °C 29.70in /  1005.6hPa NNE 6.0mph /  9.7km/h 11.0mph /  17.7km/h 48% 0.00in /  0mm 346.0 W/m2
14:21 81.0 °F /  27.2 °C 59.4 °F /  15.2 °C 29.70in /  1005.6hPa SE 6.0mph /  9.7km/h 7.0mph /  11.3km/h 48% 0.00in /  0mm 608.0 W/m2
14:27 80.8 °F /  27.1 °C 59.2 °F /  15.1 °C 29.69in /  1005.3hPa SE 2.0mph /  3.2km/h 9.0mph /  14.5km/h 48% 0.00in /  0mm 506.0 W/m2
14:34 81.0 °F /  27.2 °C 59.4 °F /  15.2 °C 29.69in /  1005.3hPa East 4.0mph /  6.4km/h 9.0mph /  14.5km/h 48% 0.00in /  0mm 316.0 W/m2
14:40 80.8 °F /  27.1 °C 59.2 °F /  15.1 °C 29.69in /  1005.3hPa East 4.0mph /  6.4km/h 7.0mph /  11.3km/h 48% 0.00in /  0mm 513.0 W/m2
14:46 80.6 °F /  27 °C 59.7 °F /  15.4 °C 29.68in /  1005hPa East 2.0mph /  3.2km/h 7.0mph /  11.3km/h 49% 0.00in /  0mm 561.0 W/m2
14:52 81.1 °F /  27.3 °C 59.5 °F /  15.3 °C 29.68in /  1005hPa NE 4.0mph /  6.4km/h 10.0mph /  16.1km/h 48% 0.00in /  0mm 619.0 W/m2
14:58 81.3 °F /  27.4 °C 60.3 °F /  15.7 °C 29.68in /  1005hPa ENE 2.0mph /  3.2km/h 6.0mph /  9.7km/h 49% 0.00in /  0mm 573.0 W/m2
15:04 81.7 °F /  27.6 °C 60.1 °F /  15.6 °C 29.68in /  1005hPa NE 4.9mph /  7.9km/h 9.0mph /  14.5km/h 48% 0.00in /  0mm 378.0 W/m2
15:10 81.5 °F /  27.5 °C 60.4 °F /  15.8 °C 29.68in /  1005hPa East 13.0mph /  20.9km/h 13.0mph /  20.9km/h 49% 0.00in /  0mm 274.0 W/m2
15:16 80.8 °F /  27.1 °C 60.4 °F /  15.8 °C 29.68in /  1005hPa SE 6.0mph /  9.7km/h 10.0mph /  16.1km/h 50% 0.00in /  0mm 330.0 W/m2
15:23 80.2 °F /  26.8 °C 59.4 °F /  15.2 °C 29.68in /  1005hPa ESE 2.0mph /  3.2km/h 9.0mph /  14.5km/h 49% 0.00in /  0mm 330.0 W/m2
15:29 80.1 °F /  26.7 °C 59.7 °F /  15.4 °C 29.68in /  1005hPa NE 6.0mph /  9.7km/h 10.0mph /  16.1km/h 50% 0.00in /  0mm 338.0 W/m2
15:41 79.9 °F /  26.6 °C 59.5 °F /  15.3 °C 29.68in /  1005hPa NE 0.9mph /  1.4km/h 11.0mph /  17.7km/h 50% 0.00in /  0mm 186.0 W/m2
15:47 79.5 °F /  26.4 °C 59.7 °F /  15.4 °C 29.68in /  1005hPa Calm   5.0mph /  8km/h 51% 0.00in /  0mm 211.0 W/m2
15:53 79.2 °F /  26.2 °C 60.1 °F /  15.6 °C 29.68in /  1005hPa Calm   8.0mph /  12.9km/h 52% 0.00in /  0mm 197.0 W/m2
15:59 79.0 °F /  26.1 °C 59.9 °F /  15.5 °C 29.68in /  1005hPa ESE 6.9mph /  11.1km/h 10.0mph /  16.1km/h 52% 0.00in /  0mm 188.0 W/m2
16:05 78.6 °F /  25.9 °C 62.1 °F /  16.7 °C 29.68in /  1005hPa NE 2.0mph /  3.2km/h 6.0mph /  9.7km/h 57% 0.00in /  0mm 220.0 W/m2
16:12 78.1 °F /  25.6 °C 60.6 °F /  15.9 °C 29.67in /  1004.6hPa NNE 0.9mph /  1.4km/h 5.0mph /  8km/h 55% 0.00in /  0mm 271.0 W/m2
16:18 78.1 °F /  25.6 °C 60.6 °F /  15.9 °C 29.67in /  1004.6hPa ENE 0.9mph /  1.4km/h 3.0mph /  4.8km/h 55% 0.00in /  0mm 318.0 W/m2
16:24 78.4 °F /  25.8 °C 59.9 °F /  15.5 °C 29.68in /  1005hPa ESE 2.9mph /  4.7km/h 7.0mph /  11.3km/h 53% 0.00in /  0mm 276.0 W/m2
16:30 78.6 °F /  25.9 °C 59.5 °F /  15.3 °C 29.67in /  1004.6hPa ESE 6.0mph /  9.7km/h 7.0mph /  11.3km/h 52% 0.00in /  0mm 230.0 W/m2
16:36 78.8 °F /  26 °C 59.2 °F /  15.1 °C 29.67in /  1004.6hPa East 4.0mph /  6.4km/h 6.0mph /  9.7km/h 51% 0.00in /  0mm 207.0 W/m2
16:42 79.0 °F /  26.1 °C 58.8 °F /  14.9 °C 29.67in /  1004.6hPa SE 6.0mph /  9.7km/h 6.0mph /  9.7km/h 50% 0.00in /  0mm 221.0 W/m2
16:48 79.0 °F /  26.1 °C 61.0 °F /  16.1 °C 29.68in /  1005hPa NNE 4.0mph /  6.4km/h 9.0mph /  14.5km/h 54% 0.00in /  0mm 248.0 W/m2
16:54 78.8 °F /  26 °C 61.3 °F /  16.3 °C 29.67in /  1004.6hPa East 2.9mph /  4.7km/h 5.0mph /  8km/h 55% 0.00in /  0mm 276.0 W/m2
17:00 78.8 °F /  26 °C 61.3 °F /  16.3 °C 29.68in /  1005hPa SSE 2.0mph /  3.2km/h 8.0mph /  12.9km/h 55% 0.00in /  0mm 318.0 W/m2
17:09 79.0 °F /  26.1 °C 61.0 °F /  16.1 °C 29.67in /  1004.6hPa East 0.9mph /  1.4km/h 10.0mph /  16.1km/h 54% 0.00in /  0mm 599.0 W/m2
17:15 79.3 °F /  26.3 °C 61.2 °F /  16.2 °C 29.67in /  1004.6hPa ENE 8.1mph /  13km/h 9.0mph /  14.5km/h 54% 0.00in /  0mm 610.0 W/m2
17:21 80.1 °F /  26.7 °C 61.3 °F /  16.3 °C 29.67in /  1004.6hPa East 4.0mph /  6.4km/h 5.0mph /  8km/h 53% 0.00in /  0mm 373.0 W/m2
17:27 80.2 °F /  26.8 °C 61.0 °F /  16.1 °C 29.67in /  1004.6hPa ESE 6.0mph /  9.7km/h 13.0mph /  20.9km/h 52% 0.00in /  0mm 260.0 W/m2
17:33 79.9 °F /  26.6 °C 60.1 °F /  15.6 °C 29.67in /  1004.6hPa SE 0.9mph /  1.4km/h 7.0mph /  11.3km/h 51% 0.00in /  0mm 155.0 W/m2
17:39 79.3 °F /  26.3 °C 60.8 °F /  16 °C 29.68in /  1005hPa ENE 0.9mph /  1.4km/h 6.0mph /  9.7km/h 53% 0.00in /  0mm 160.0 W/m2
17:45 79.0 °F /  26.1 °C 60.4 °F /  15.8 °C 29.68in /  1005hPa ESE 2.0mph /  3.2km/h 10.0mph /  16.1km/h 53% 0.00in /  0mm 70.0 W/m2
17:51 78.4 °F /  25.8 °C 60.4 °F /  15.8 °C 29.69in /  1005.3hPa ENE 0.9mph /  1.4km/h 6.0mph /  9.7km/h 54% 0.00in /  0mm 44.0 W/m2
17:57 78.1 °F /  25.6 °C 60.1 °F /  15.6 °C 29.70in /  1005.6hPa NNE 2.0mph /  3.2km/h 9.0mph /  14.5km/h 54% 0.00in /  0mm 28.0 W/m2
18:04 77.5 °F /  25.3 °C 59.5 °F /  15.3 °C 29.70in /  1005.6hPa SE 0.9mph /  1.4km/h 10.0mph /  16.1km/h 54% 0.00in /  0mm 30.0 W/m2
18:10 77.0 °F /  25 °C 59.5 °F /  15.3 °C 29.70in /  1005.6hPa NNW 4.0mph /  6.4km/h 11.0mph /  17.7km/h 55% 0.00in /  0mm 28.0 W/m2
18:16 76.5 °F /  24.7 °C 58.6 °F /  14.8 °C 29.71in /  1006hPa SE 2.0mph /  3.2km/h 9.0mph /  14.5km/h 54% 0.00in /  0mm 26.0 W/m2
18:22 76.3 °F /  24.6 °C 58.5 °F /  14.7 °C 29.70in /  1005.6hPa SE 6.0mph /  9.7km/h 9.0mph /  14.5km/h 54% 0.00in /  0mm 25.0 W/m2
18:28 75.9 °F /  24.4 °C 58.6 °F /  14.8 °C 29.70in /  1005.6hPa ESE 2.0mph /  3.2km/h 9.0mph /  14.5km/h 55% 0.00in /  0mm 25.0 W/m2
18:34 75.6 °F /  24.2 °C 58.8 °F /  14.9 °C 29.70in /  1005.6hPa SE 6.0mph /  9.7km/h 6.0mph /  9.7km/h 56% 0.00in /  0mm 25.0 W/m2
18:40 75.6 °F /  24.2 °C 59.2 °F /  15.1 °C 29.70in /  1005.6hPa East 6.0mph /  9.7km/h 7.0mph /  11.3km/h 57% 0.00in /  0mm 23.0 W/m2
18:47 75.4 °F /  24.1 °C 60.1 °F /  15.6 °C 29.70in /  1005.6hPa SE 2.0mph /  3.2km/h 6.0mph /  9.7km/h 59% 0.00in /  0mm 19.0 W/m2
18:53 75.2 °F /  24 °C 60.4 °F /  15.8 °C 29.70in /  1005.6hPa Calm   5.0mph /  8km/h 60% 0.00in /  0mm 12.0 W/m2
18:59 74.8 °F /  23.8 °C 61.0 °F /  16.1 °C 29.71in /  1006hPa Calm   7.0mph /  11.3km/h 62% 0.00in /  0mm 9.0 W/m2
19:05 74.5 °F /  23.6 °C 60.6 °F /  15.9 °C 29.71in /  1006hPa NE 2.9mph /  4.7km/h 6.0mph /  9.7km/h 62% 0.00in /  0mm 5.0 W/m2
19:11 74.1 °F /  23.4 °C 60.8 °F /  16 °C 29.72in /  1006.3hPa East 2.9mph /  4.7km/h 6.0mph /  9.7km/h 63% 0.00in /  0mm 0.0 W/m2
19:17 73.9 °F /  23.3 °C 61.0 °F /  16.1 °C 29.72in /  1006.3hPa East 2.9mph /  4.7km/h 8.0mph /  12.9km/h 64% 0.00in /  0mm 0.0 W/m2
19:23 73.6 °F /  23.1 °C 61.2 °F /  16.2 °C 29.73in /  1006.7hPa Calm   6.0mph /  9.7km/h 65% 0.00in /  0mm 0.0 W/m2
19:30 73.0 °F /  22.8 °C 60.6 °F /  15.9 °C 29.73in /  1006.7hPa ENE 4.0mph /  6.4km/h 5.0mph /  8km/h 65% 0.00in /  0mm 0.0 W/m2
19:36 72.7 °F /  22.6 °C 60.6 °F /  15.9 °C 29.73in /  1006.7hPa Calm   6.0mph /  9.7km/h 66% 0.00in /  0mm 0.0 W/m2
19:42 72.3 °F /  22.4 °C 60.8 °F /  16 °C 29.74in /  1007hPa ESE 0.9mph /  1.4km/h 5.0mph /  8km/h 67% 0.00in /  0mm 0.0 W/m2
19:48 72.1 °F /  22.3 °C 61.0 °F /  16.1 °C 29.74in /  1007hPa NE 0.9mph /  1.4km/h 4.0mph /  6.4km/h 68% 0.00in /  0mm 0.0 W/m2
19:54 72.0 °F /  22.2 °C 61.2 °F /  16.2 °C 29.74in /  1007hPa Calm   3.0mph /  4.8km/h 69% 0.00in /  0mm 0.0 W/m2
20:00 71.8 °F /  22.1 °C 61.0 °F /  16.1 °C 29.75in /  1007.3hPa NE 2.0mph /  3.2km/h 3.0mph /  4.8km/h 69% 0.00in /  0mm 0.0 W/m2
20:06 71.8 °F /  22.1 °C 61.0 °F /  16.1 °C 29.75in /  1007.3hPa ENE 2.0mph /  3.2km/h 3.0mph /  4.8km/h 69% 0.00in /  0mm 0.0 W/m2
20:13 71.4 °F /  21.9 °C 60.8 °F /  16 °C 29.75in /  1007.3hPa Calm   1.0mph /  1.6km/h 69% 0.00in /  0mm 0.0 W/m2
20:18 71.4 °F /  21.9 °C 61.2 °F /  16.2 °C 29.75in /  1007.3hPa ENE 0.9mph /  1.4km/h 2.0mph /  3.2km/h 70% 0.00in /  0mm 0.0 W/m2
20:25 71.2 °F /  21.8 °C 61.0 °F /  16.1 °C 29.75in /  1007.3hPa ENE 0.9mph /  1.4km/h 3.0mph /  4.8km/h 70% 0.00in /  0mm 0.0 W/m2
20:31 71.1 °F /  21.7 °C 61.2 °F /  16.2 °C 29.75in /  1007.3hPa Calm   2.0mph /  3.2km/h 71% 0.00in /  0mm 0.0 W/m2
20:37 71.1 °F /  21.7 °C 61.2 °F /  16.2 °C 29.75in /  1007.3hPa Calm   3.0mph /  4.8km/h 71% 0.00in /  0mm 0.0 W/m2
20:43 70.9 °F /  21.6 °C 61.3 °F /  16.3 °C 29.75in /  1007.3hPa Calm     72% 0.00in /  0mm 0.0 W/m2
20:49 70.9 °F /  21.6 °C 61.3 °F /  16.3 °C 29.76in /  1007.7hPa Calm     72% 0.00in /  0mm 0.0 W/m2
20:55 70.9 °F /  21.6 °C 61.3 °F /  16.3 °C 29.76in /  1007.7hPa Calm     72% 0.00in /  0mm 0.0 W/m2
21:01 70.9 °F /  21.6 °C 61.9 °F /  16.6 °C 29.76in /  1007.7hPa Calm     73% 0.00in /  0mm 0.0 W/m2
21:07 70.7 °F /  21.5 °C 62.1 °F /  16.7 °C 29.77in /  1008hPa Calm     74% 0.00in /  0mm 0.0 W/m2
21:14 70.5 °F /  21.4 °C 61.9 °F /  16.6 °C 29.77in /  1008hPa Calm   1.0mph /  1.6km/h 74% 0.00in /  0mm 0.0 W/m2
21:20 70.3 °F /  21.3 °C 62.1 °F /  16.7 °C 29.77in /  1008hPa Calm     75% 0.00in /  0mm 0.0 W/m2
21:26 70.3 °F /  21.3 °C 62.1 °F /  16.7 °C 29.78in /  1008.4hPa Calm     75% 0.00in /  0mm 0.0 W/m2
21:32 70.2 °F /  21.2 °C 61.9 °F /  16.6 °C 29.78in /  1008.4hPa Calm     75% 0.00in /  0mm 0.0 W/m2
21:38 70.2 °F /  21.2 °C 62.2 °F /  16.8 °C 29.78in /  1008.4hPa Calm     76% 0.00in /  0mm 0.0 W/m2
21:44 70.0 °F /  21.1 °C 62.1 °F /  16.7 °C 29.78in /  1008.4hPa Calm     76% 0.00in /  0mm 0.0 W/m2
21:50 70.0 °F /  21.1 °C 62.1 °F /  16.7 °C 29.78in /  1008.4hPa Calm   3.0mph /  4.8km/h 76% 0.00in /  0mm 0.0 W/m2
21:56 70.0 °F /  21.1 °C 62.1 °F /  16.7 °C 29.78in /  1008.4hPa Calm     76% 0.00in /  0mm 0.0 W/m2
22:03 70.0 °F /  21.1 °C 62.1 °F /  16.7 °C 29.78in /  1008.4hPa Calm     76% 0.00in /  0mm 0.0 W/m2
22:09 70.0 °F /  21.1 °C 61.7 °F /  16.5 °C 29.79in /  1008.7hPa Calm     75% 0.00in /  0mm 0.0 W/m2
22:15 70.0 °F /  21.1 °C 62.1 °F /  16.7 °C 29.79in /  1008.7hPa Calm     76% 0.00in /  0mm 0.0 W/m2
22:21 70.0 °F /  21.1 °C 62.1 °F /  16.7 °C 29.79in /  1008.7hPa Calm     76% 0.00in /  0mm 0.0 W/m2
22:27 70.0 °F /  21.1 °C 62.1 °F /  16.7 °C 29.79in /  1008.7hPa Calm     76% 0.00in /  0mm 0.0 W/m2
22:33 70.0 °F /  21.1 °C 62.1 °F /  16.7 °C 29.79in /  1008.7hPa Calm     76% 0.00in /  0mm 0.0 W/m2
22:40 70.0 °F /  21.1 °C 62.1 °F /  16.7 °C 29.79in /  1008.7hPa Calm     76% 0.00in /  0mm 0.0 W/m2
22:46 70.0 °F /  21.1 °C 62.1 °F /  16.7 °C 29.79in /  1008.7hPa Calm     76% 0.00in /  0mm 0.0 W/m2
22:52 70.0 °F /  21.1 °C 61.7 °F /  16.5 °C 29.79in /  1008.7hPa Calm     75% 0.00in /  0mm 0.0 W/m2
22:58 70.0 °F /  21.1 °C 61.7 °F /  16.5 °C 29.79in /  1008.7hPa Calm     75% 0.00in /  0mm 0.0 W/m2
23:04 70.0 °F /  21.1 °C 61.7 °F /  16.5 °C 29.79in /  1008.7hPa Calm     75% 0.00in /  0mm 0.0 W/m2
23:10 70.0 °F /  21.1 °C 61.7 °F /  16.5 °C 29.79in /  1008.7hPa Calm     75% 0.00in /  0mm 0.0 W/m2
23:16 70.0 °F /  21.1 °C 62.1 °F /  16.7 °C 29.80in /  1009hPa Calm     76% 0.00in /  0mm 0.0 W/m2
23:22 69.8 °F /  21 °C 61.9 °F /  16.6 °C 29.80in /  1009hPa Calm     76% 0.00in /  0mm 0.0 W/m2
23:28 69.8 °F /  21 °C 61.5 °F /  16.4 °C 29.79in /  1008.7hPa Calm   2.0mph /  3.2km/h 75% 0.00in /  0mm 0.0 W/m2
23:34 70.0 °F /  21.1 °C 61.3 °F /  16.3 °C 29.80in /  1009hPa ENE 0.9mph /  1.4km/h 3.0mph /  4.8km/h 74% 0.00in /  0mm 0.0 W/m2
23:40 70.0 °F /  21.1 °C 61.3 °F /  16.3 °C 29.80in /  1009hPa ENE 0.9mph /  1.4km/h 3.0mph /  4.8km/h 74% 0.00in /  0mm 0.0 W/m2
23:46 70.0 °F /  21.1 °C 61.3 °F /  16.3 °C 29.79in /  1008.7hPa East 0.9mph /  1.4km/h 1.0mph /  1.6km/h 74% 0.00in /  0mm 0.0 W/m2
23:52 70.2 °F /  21.2 °C 61.5 °F /  16.4 °C 29.79in /  1008.7hPa Calm     74% 0.00in /  0mm 0.0 W/m2
23:58 70.2 °F /  21.2 °C 61.5 °F /  16.4 °C 29.79in /  1008.7hPa North 4.0mph /  6.4km/h 4.0mph /  6.4km/h 74% 0.00in /  0mm 0.0 W/m2
Olympia, Windhoek, Namibia
Compliments of Weather Underground - 3 mb